• Join FlightAware (Why Join?)
  • Login
  • US Flag 
10:49PM EDT


 

Airport Tracker/Info


-or-


 

Live Flight TrackerFlight Track Log ✈ N24GJ ✈ 11-Jul-2013 ✈ KCPS - KLZU

Flight Track Log - Related Links

Times and Time Zones

All times are in EDT time to prevent confusion due to time zone crossing. See the N24GJ flight status page for this flight to view local times or setup timezone preferences in your user account.

Time Position Orientation Groundspeed Altitude Reporting Facility
EDT Latitude Longitude Course Direction KTS MPH feet Rate Location/Type
09:12AM 38.5500 -90.1333 113° Southeast 166 191 1,200  Level Gateway (St. Louis) TRACON
09:13AM 38.5333 -90.0833 113° Southeast 151 174 2,500 1,260 Climbing Gateway (St. Louis) TRACON
09:14AM 38.5092 -90.0625 146° Southeast 151 174 3,300 1,320 Climbing Kansas City Center
09:15AM 38.4689 -90.0317 149° Southeast 162 186 4,600 1,320 Climbing Kansas City Center
09:16AM 38.4269 -90.0039 153° Southeast 168 193 6,100 1,260 Climbing Kansas City Center
09:17AM 38.3850 -89.9794 155° Southeast 167 192 7,200 1,020 Climbing Kansas City Center
09:18AM 38.3397 -89.9517 154° Southeast 173 199 8,300 1,020 Climbing Kansas City Center
09:19AM 38.2939 -89.9244 155° Southeast 178 205 9,400 960 Climbing Kansas City Center
09:20AM 38.2489 -89.8897 149° Southeast 183 211 10,300 840 Climbing Kansas City Center
09:21AM 38.2097 -89.8414 136° Southeast 190 219 11,200 960 Climbing Kansas City Center
09:22AM 38.1761 -89.7744 123° Southeast 189 217 12,300 960 Climbing Kansas City Center
09:23AM 38.1419 -89.7200 129° Southeast 192 221 13,200 840 Climbing Kansas City Center
09:24AM 38.1078 -89.6661 129° Southeast 193 222 14,100 840 Climbing Kansas City Center
09:25AM 38.0708 -89.6111 130° Southeast 191 220 15,000 720 Climbing Kansas City Center
09:26AM 38.0342 -89.5594 132° Southeast 195 224 15,600 600 Climbing Kansas City Center
09:27AM 37.9986 -89.5053 130° Southeast 200 230 16,300 720 Climbing Kansas City Center
09:28AM 37.9614 -89.4478 129° Southeast 197 227 17,100 660 Climbing Kansas City Center
09:29AM 37.9272 -89.3950 129° Southeast 196 226 17,700 480 Climbing Kansas City Center
09:30AM 37.8922 -89.3400 129° Southeast 197 227 18,200 540 Climbing Kansas City Center
09:31AM 37.8525 -89.2808 130° Southeast 204 235 18,900 600 Climbing Kansas City Center
09:32AM 37.8186 -89.2278 129° Southeast 199 229 19,500 600 Climbing Kansas City Center
09:33AM 37.7817 -89.1717 130° Southeast 205 236 20,200 540 Climbing Kansas City Center
09:34AM 37.7439 -89.1194 132° Southeast 202 232 20,700 360 Climbing Kansas City Center
09:35AM 37.7086 -89.0639 129° Southeast 202 232 21,000 120 Climbing Kansas City Center
09:36AM 37.6681 -89.0036 130° Southeast 218 251 21,000  Level Kansas City Center
09:37AM 37.6244 -88.9389 130° Southeast 235 270 21,000  Level Kansas City Center
09:38AM 37.5731 -88.8586 129° Southeast 242 278 21,000 -60 Level Kansas City Center
09:39AM 37.5300 -88.7939 130° Southeast 241 277 20,900  Descending Kansas City Center
09:40AM 37.4878 -88.7278 129° Southeast 242 278 21,000  Climbing Kansas City Center
09:41AM 37.4442 -88.6631 130° Southeast 242 278 21,000  Level Kansas City Center
09:42AM 37.4000 -88.5983 131° Southeast 242 278 21,000  Level Kansas City Center
09:43AM 37.3753 -88.5639 132° Southeast 246 283 21,000  Level Memphis Center
09:44AM 37.3303 -88.4972 130° Southeast 246 283 21,000  Level Memphis Center
09:45AM 37.2878 -88.4331 130° Southeast 246 283 21,000  Level Memphis Center
09:46AM 37.2431 -88.3689 131° Southeast 246 283 21,000  Level Memphis Center
09:47AM 37.2003 -88.3022 129° Southeast 240 276 21,000  Level Memphis Center
09:48AM 37.1533 -88.2358 132° Southeast 240 276 21,000  Level Memphis Center
09:49AM 37.1106 -88.1719 130° Southeast 240 276 21,000  Level Memphis Center
09:50AM 37.0678 -88.1081 130° Southeast 240 276 21,000  Level Memphis Center
09:51AM 37.0206 -88.0392 131° Southeast 240 276 21,000  Level Memphis Center
09:52AM 36.9756 -87.9756 132° Southeast 240 276 21,000  Level Memphis Center
09:53AM 36.9347 -87.9119 129° Southeast 240 276 21,000  Level Memphis Center
09:54AM 36.8897 -87.8486 132° Southeast 240 276 21,000  Level Memphis Center
09:55AM 36.8406 -87.7800 132° Southeast 234 269 21,000  Level Memphis Center
09:56AM 36.7975 -87.7167 130° Southeast 234 269 21,000  Level Memphis Center
09:57AM 36.7544 -87.6561 132° Southeast 234 269 21,000  Level Memphis Center
09:58AM 36.7114 -87.5928 130° Southeast 239 275 21,000  Level Memphis Center
09:59AM 36.6683 -87.5294 130° Southeast 239 275 21,000  Level Memphis Center
10:00AM 36.6253 -87.4689 132° Southeast 234 269 21,000  Level Memphis Center
10:01AM 36.5822 -87.4086 132° Southeast 239 275 21,000  Level Memphis Center
10:02AM 36.5389 -87.3456 131° Southeast 239 275 21,000  Level Memphis Center
10:03AM 36.4958 -87.2853 132° Southeast 239 275 21,000  Level Memphis Center
10:04AM 36.4525 -87.2222 130° Southeast 239 275 21,000  Level Memphis Center
10:05AM 36.4133 -87.1644 130° Southeast 239 275 21,000  Level Memphis Center
10:06AM 36.3703 -87.1069 133° Southeast 239 275 21,000  Level Memphis Center
10:07AM 36.3247 -87.0417 131° Southeast 239 275 21,000  Level Memphis Center
10:08AM 36.2794 -86.9844 134° Southeast 239 275 21,000  Level Memphis Center
10:09AM 36.2339 -86.9194 131° Southeast 239 275 21,000  Level Memphis Center
10:10AM 36.1906 -86.8569 131° Southeast 239 275 21,000  Level Memphis Center
10:11AM 36.1469 -86.7919 130° Southeast 239 275 21,000  Level Memphis Center
10:12AM 36.1033 -86.7322 132° Southeast 239 275 21,000  Level Memphis Center
10:13AM 36.0600 -86.6700 131° Southeast 239 275 21,000  Level Memphis Center
10:14AM 36.0183 -86.6078 130° Southeast 239 275 21,000  Level Memphis Center
10:15AM 35.9728 -86.5456 132° Southeast 239 275 21,000  Level Memphis Center
10:16AM 35.9314 -86.4861 131° Southeast 239 275 21,000  Level Memphis Center
10:17AM 35.8878 -86.4242 131° Southeast 239 275 21,000  Level Memphis Center
10:18AM 35.8397 -86.3572 132° Southeast 239 275 21,000  Level Memphis Center
10:19AM 35.7961 -86.2978 132° Southeast 239 275 21,000  Level Memphis Center
10:20AM 35.7503 -86.2361 132° Southeast 239 275 21,000  Level Memphis Center
10:21AM 35.7086 -86.1744 130° Southeast 234 269 21,000  Level Memphis Center
10:22AM 35.6625 -86.1128 133° Southeast 234 269 21,000  Level Memphis Center
10:23AM 35.6189 -86.0539 132° Southeast 234 269 21,000  Level Memphis Center
10:24AM 35.5794 -85.9997 132° Southeast 234 269 21,000  Level Memphis Center
10:25AM 35.5378 -85.9406 131° Southeast 234 269 21,000  Level Memphis Center
10:26AM 35.4939 -85.8819 133° Southeast 234 269 21,000  Level Memphis Center
10:27AM 35.4500 -85.8231 132° Southeast 234 269 21,000  Level Memphis Center
10:28AM 35.4061 -85.7617 131° Southeast 239 275 21,000  Level Memphis Center
10:29AM 35.3642 -85.7031 131° Southeast 239 275 21,000  Level Memphis Center
10:31AM 35.2686 -85.5728 132° Southeast 229 264 21,000  Level Atlanta Center
10:32AM 35.2256 -85.5133 132° Southeast 229 264 21,000  Level Atlanta Center
10:33AM 35.1844 -85.4567 132° Southeast 229 264 21,000  Level Atlanta Center
10:34AM 35.1411 -85.4003 133° Southeast 229 264 21,000  Level Atlanta Center
10:35AM 35.1000 -85.3436 132° Southeast 224 258 21,000  Level Atlanta Center
10:36AM 35.0569 -85.2847 132° Southeast 224 258 21,000 -660 Level Atlanta Center
10:37AM 35.0053 -85.2281 138° Southeast 224 258 19,700 -1,200 Descending Atlanta Center
10:38AM 34.9517 -85.1639 136° Southeast 242 278 18,600 -1,080 Descending Atlanta Center
10:39AM 34.9042 -85.1000 132° Southeast 255 293 17,600 -840 Descending Atlanta Center
10:40AM 34.8547 -85.0386 134° Southeast 255 293 17,000 -300 Descending Atlanta Center
10:41AM 34.8069 -84.9825 136° Southeast 248 285 17,100  Climbing Atlanta Center
10:42AM 34.7594 -84.9236 134° Southeast 243 280 17,100  Level Atlanta Center
10:43AM 34.7139 -84.8675 135° Southeast 243 280 17,100  Level Atlanta Center
10:44AM 34.6683 -84.8092 134° Southeast 243 280 17,100 -60 Level Atlanta Center
10:45AM 34.6250 -84.7506 132° Southeast 233 268 17,000 -60 Descending Atlanta Center
10:46AM 34.5836 -84.7022 136° Southeast 228 262 17,000 -480 Level Atlanta Center
10:47AM 34.5378 -84.6389 131° Southeast 228 262 16,100 -1,320 Descending Atlanta Center
10:48AM 34.4881 -84.5781 135° Southeast 241 277 14,400 -1,800 Descending Atlanta Center
10:49AM 34.4403 -84.5175 134° Southeast 249 287 12,500 -1,920 Descending Atlanta Center
10:50AM 34.3947 -84.4642 136° Southeast 242 278 10,600 -2,160 Descending Atlanta Center
10:51AM 34.3489 -84.4086 135° Southeast 237 273 8,200 -1,800 Descending Atlanta Center
10:52AM 34.3011 -84.3531 136° Southeast 229 264 7,100 -600 Descending Atlanta Center
10:53AM 34.2594 -84.3053 137° Southeast 218 251 7,000 -600 Descending Atlanta Center
10:54AM 34.2178 -84.2547 135° Southeast 212 244 6,000 -960 Descending Atlanta Center
10:55AM 34.1761 -84.2019 134° Southeast 212 244 5,100 -480 Descending Atlanta Center
10:56AM 34.1428 -84.1492 127° Southeast 205 236 5,100 -120 Level Atlanta Center
10:57AM 34.1386 -84.0789 94° East 194 223 4,900 -600 Descending Atlanta Center
10:58AM 34.1408 -84.0111 88° East 199 229 4,000 -420 Descending Atlanta Center
10:59AM 34.1428 -83.9561 88° East 188 216 4,100  Climbing Atlanta Center
11:01AM 34.1500 -83.8500 85° East 185 213 4,100  Level Atlanta TRACON
11:02AM 34.1167 -83.8000 129° Southeast 183 211 4,100  Level Atlanta TRACON
11:03AM 34.0833 -83.8000 180° South 163 188 4,100 -300 Level Atlanta TRACON
11:04AM 34.0333 -83.8167 195° South 148 170 3,600 -600 Descending Atlanta TRACON
11:05AM 34.0167 -83.8667 248° West 143 165 2,900 -720 Descending Atlanta TRACON
11:06AM 34.0000 -83.9000 239° Southwest 120 138 2,200 -660 Descending Atlanta TRACON
11:07AM 33.9833 -83.9333 239° Southwest 103 119 1,600 -600 Descending Atlanta TRACON